DLH47 KBOS-EDDF
Flight info
| Callsign | DLH47 |
|---|---|
| Flight time | N/A |
| Altitude | 35000 |
| Route | LBSTA8 LBSTA DCT EBONY N505B ALLRY/M083F370 NATT SOVED/N0472F370 DCT KUGUR DCT BELOX L603 DOLAS DCT NAVPI DCT NOLRU DCT DIXAT DIXAT1A |
| Aircraft | A346/H-SDE2E3FGHIJ3J4J5M1RWXY/LB1D1 |
Departure
| Time | N/A |
|---|---|
| Airport | Boston Logan International Airport (KBOS) |
Arrival
| Time | 2026-05-04 06:21 |
|---|---|
| Airport | Frankfurt Main Airport (EDDF) |
| Time | Latitude | Longitude | Altitude | Speed | Heading |
|---|---|---|---|---|---|
| 2026-05-04 00:53 | 48.14886 | -59.32523 | 36704 ft | 513 kts | 71° |
| 2026-05-04 00:53 | 48.16397 | -59.27681 | 36111 ft | 512 kts | 71° |
| 2026-05-04 00:53 | 48.17912 | -59.22865 | 35638 ft | 509 kts | 71° |
| 2026-05-04 00:53 | 48.19502 | -59.18128 | 35192 ft | 511 kts | 65° |
| 2026-05-04 00:54 | 48.21523 | -59.13709 | 34759 ft | 516 kts | 59° |
| 2026-05-04 00:54 | 48.23725 | -59.09465 | 34546 ft | 514 kts | 58° |
| 2026-05-04 00:54 | 48.25979 | -59.05287 | 34563 ft | 515 kts | 57° |
| 2026-05-04 00:55 | 48.30524 | -58.96956 | 34556 ft | 515 kts | 57° |
| 2026-05-04 00:55 | 48.34878 | -58.88461 | 34564 ft | 509 kts | 63° |
| 2026-05-04 00:56 | 48.38527 | -58.79404 | 34499 ft | 503 kts | 68° |
| 2026-05-04 00:56 | 48.41837 | -58.70049 | 34546 ft | 508 kts | 69° |
| 2026-05-04 00:57 | 48.45136 | -58.60625 | 34578 ft | 508 kts | 69° |
| 2026-05-04 00:57 | 48.48444 | -58.51195 | 34579 ft | 508 kts | 69° |
| 2026-05-04 00:58 | 48.51752 | -58.41755 | 34574 ft | 508 kts | 69° |
| 2026-05-04 00:58 | 48.55085 | -58.32227 | 34599 ft | 516 kts | 70° |
| 2026-05-04 00:59 | 48.58427 | -58.22616 | 34606 ft | 517 kts | 70° |
| 2026-05-04 00:59 | 48.61768 | -58.12987 | 34624 ft | 516 kts | 70° |
| 2026-05-04 01:00 | 48.65097 | -58.03355 | 34635 ft | 516 kts | 70° |
| 2026-05-04 01:00 | 48.68406 | -57.93744 | 34634 ft | 519 kts | 70° |
| 2026-05-04 01:01 | 48.71726 | -57.84027 | 34639 ft | 519 kts | 69° |
| 2026-05-04 01:01 | 48.75053 | -57.74307 | 34659 ft | 519 kts | 69° |
| 2026-05-04 01:02 | 48.78369 | -57.64584 | 34676 ft | 519 kts | 69° |
| 2026-05-04 01:02 | 48.81676 | -57.54840 | 34689 ft | 519 kts | 69° |
| 2026-05-04 01:03 | 48.84971 | -57.45091 | 34685 ft | 519 kts | 69° |
| 2026-05-04 01:03 | 48.88260 | -57.35322 | 34691 ft | 518 kts | 69° |
| 2026-05-04 01:04 | 48.91535 | -57.25555 | 34688 ft | 518 kts | 70° |
| 2026-05-04 01:04 | 48.94816 | -57.15738 | 34692 ft | 521 kts | 70° |
| 2026-05-04 01:05 | 48.98092 | -57.05887 | 34702 ft | 521 kts | 70° |
| 2026-05-04 01:05 | 49.01361 | -56.96026 | 34702 ft | 521 kts | 70° |
| 2026-05-04 01:06 | 49.04619 | -56.86157 | 34715 ft | 521 kts | 70° |
| 2026-05-04 01:06 | 49.07880 | -56.76232 | 34727 ft | 524 kts | 70° |
| 2026-05-04 01:07 | 49.10596 | -56.67945 | 34727 ft | 525 kts | 70° |
| 2026-05-04 01:07 | 49.13858 | -56.57960 | 34744 ft | 525 kts | 70° |
| 2026-05-04 01:08 | 49.17110 | -56.47965 | 34744 ft | 525 kts | 70° |
| 2026-05-04 01:08 | 49.20356 | -56.37930 | 34746 ft | 527 kts | 70° |
| 2026-05-04 01:09 | 49.23607 | -56.27857 | 34758 ft | 528 kts | 70° |
| 2026-05-04 01:09 | 49.26850 | -56.17772 | 34766 ft | 527 kts | 70° |
| 2026-05-04 01:10 | 49.30085 | -56.07668 | 34726 ft | 527 kts | 70° |
| 2026-05-04 01:10 | 49.33303 | -55.97525 | 34755 ft | 530 kts | 69° |
| 2026-05-04 01:11 | 49.36540 | -55.87349 | 34775 ft | 530 kts | 69° |
| 2026-05-04 01:11 | 49.39769 | -55.77159 | 34776 ft | 530 kts | 69° |
| 2026-05-04 01:12 | 49.42982 | -55.66959 | 34774 ft | 530 kts | 69° |
| 2026-05-04 01:12 | 49.46187 | -55.56726 | 34771 ft | 532 kts | 69° |
| 2026-05-04 01:13 | 49.49397 | -55.46450 | 34776 ft | 533 kts | 69° |
| 2026-05-04 01:13 | 49.52601 | -55.36159 | 34775 ft | 532 kts | 69° |
| 2026-05-04 01:14 | 49.55794 | -55.25852 | 34777 ft | 532 kts | 69° |
| 2026-05-04 01:14 | 49.58956 | -55.15588 | 34771 ft | 535 kts | 69° |
| 2026-05-04 01:15 | 49.62150 | -55.05179 | 34759 ft | 536 kts | 69° |
| 2026-05-04 01:15 | 49.65339 | -54.94761 | 34773 ft | 536 kts | 69° |
| 2026-05-04 01:16 | 49.68518 | -54.84332 | 34774 ft | 536 kts | 69° |
| 2026-05-04 01:16 | 49.71689 | -54.73853 | 34774 ft | 540 kts | 69° |
| 2026-05-04 01:17 | 49.74880 | -54.63292 | 34782 ft | 542 kts | 69° |
| 2026-05-04 01:17 | 49.78063 | -54.52716 | 34785 ft | 542 kts | 69° |
| 2026-05-04 01:18 | 49.81234 | -54.42126 | 34797 ft | 541 kts | 69° |
| 2026-05-04 01:18 | 49.84392 | -54.31510 | 34800 ft | 543 kts | 68° |
| 2026-05-04 01:19 | 49.87554 | -54.20862 | 34800 ft | 543 kts | 69° |
| 2026-05-04 01:19 | 49.90708 | -54.10190 | 34798 ft | 544 kts | 68° |
| 2026-05-04 01:20 | 49.93856 | -53.99487 | 34808 ft | 545 kts | 69° |
| 2026-05-04 01:20 | 49.96994 | -53.88762 | 34815 ft | 545 kts | 68° |
| 2026-05-04 01:21 | 50.00125 | -53.78031 | 34818 ft | 545 kts | 68° |
| 2026-05-04 01:21 | 50.03245 | -53.67287 | 34823 ft | 544 kts | 68° |
| 2026-05-04 01:22 | 50.06351 | -53.56535 | 34823 ft | 544 kts | 69° |
| 2026-05-04 01:22 | 50.09448 | -53.45769 | 34831 ft | 544 kts | 69° |
| 2026-05-04 01:23 | 50.12533 | -53.34995 | 34831 ft | 544 kts | 69° |
| 2026-05-04 01:23 | 50.15608 | -53.24204 | 34828 ft | 544 kts | 69° |
| 2026-05-04 01:24 | 50.18673 | -53.13401 | 34796 ft | 544 kts | 69° |
| 2026-05-04 01:24 | 50.21724 | -53.02567 | 34825 ft | 545 kts | 68° |
| 2026-05-04 01:25 | 50.24780 | -52.91717 | 34837 ft | 545 kts | 68° |
| 2026-05-04 01:25 | 50.27823 | -52.80853 | 34840 ft | 545 kts | 68° |
| 2026-05-04 01:26 | 50.30853 | -52.69979 | 34846 ft | 545 kts | 69° |
| 2026-05-04 01:26 | 50.33869 | -52.59077 | 34847 ft | 545 kts | 68° |
| 2026-05-04 01:27 | 50.36863 | -52.48241 | 34847 ft | 545 kts | 68° |
| 2026-05-04 01:27 | 50.39865 | -52.37319 | 34857 ft | 545 kts | 68° |
| 2026-05-04 01:28 | 50.42857 | -52.26379 | 34857 ft | 545 kts | 68° |
| 2026-05-04 01:28 | 50.45833 | -52.15419 | 34857 ft | 545 kts | 68° |
| 2026-05-04 01:29 | 50.48801 | -52.04450 | 34856 ft | 545 kts | 68° |
| 2026-05-04 01:29 | 50.51737 | -51.93458 | 34863 ft | 545 kts | 68° |
| 2026-05-04 01:30 | 50.54604 | -51.82413 | 34872 ft | 545 kts | 69° |
| 2026-05-04 01:30 | 50.57449 | -51.71366 | 34877 ft | 543 kts | 68° |
| 2026-05-04 01:31 | 50.60286 | -51.60337 | 34877 ft | 543 kts | 68° |
| 2026-05-04 01:31 | 50.63117 | -51.49290 | 34879 ft | 543 kts | 68° |
| 2026-05-04 01:32 | 50.65933 | -51.38242 | 34879 ft | 543 kts | 69° |
| 2026-05-04 01:32 | 50.68732 | -51.27181 | 34887 ft | 542 kts | 68° |
| 2026-05-04 01:33 | 50.71524 | -51.16128 | 34895 ft | 541 kts | 68° |
| 2026-05-04 01:33 | 50.74306 | -51.05054 | 34878 ft | 542 kts | 68° |
| 2026-05-04 01:34 | 50.77080 | -50.93960 | 34890 ft | 543 kts | 68° |
| 2026-05-04 01:34 | 50.79840 | -50.82845 | 34900 ft | 542 kts | 68° |
| 2026-05-04 01:35 | 50.82590 | -50.71741 | 34901 ft | 541 kts | 68° |
| 2026-05-04 01:35 | 50.85327 | -50.60627 | 34906 ft | 541 kts | 68° |
| 2026-05-04 01:36 | 50.88052 | -50.49504 | 34910 ft | 541 kts | 68° |
| 2026-05-04 01:36 | 50.90761 | -50.38369 | 34918 ft | 541 kts | 68° |
| 2026-05-04 01:37 | 50.93465 | -50.27217 | 34910 ft | 541 kts | 68° |
| 2026-05-04 01:37 | 50.96162 | -50.16050 | 34920 ft | 541 kts | 68° |
| 2026-05-04 01:38 | 50.98823 | -50.04946 | 34910 ft | 542 kts | 68° |
| 2026-05-04 01:38 | 51.01540 | -49.93768 | 34931 ft | 542 kts | 66° |
| 2026-05-04 01:39 | 51.04373 | -49.82582 | 34937 ft | 541 kts | 66° |
| 2026-05-04 01:39 | 51.07178 | -49.71468 | 34936 ft | 541 kts | 66° |
| 2026-05-04 01:40 | 51.09959 | -49.60336 | 34946 ft | 541 kts | 66° |
| 2026-05-04 01:40 | 51.12704 | -49.49260 | 34968 ft | 540 kts | 66° |
| 2026-05-04 01:41 | 51.15447 | -49.38122 | 34956 ft | 539 kts | 66° |
| 2026-05-04 01:41 | 51.18183 | -49.26985 | 34965 ft | 539 kts | 66° |
| 2026-05-04 01:42 | 51.20908 | -49.15834 | 34968 ft | 539 kts | 66° |
| 2026-05-04 01:42 | 51.23621 | -49.04664 | 34968 ft | 539 kts | 66° |
| 2026-05-04 01:43 | 51.26322 | -48.93478 | 34966 ft | 539 kts | 66° |
| 2026-05-04 01:43 | 51.29016 | -48.82273 | 34975 ft | 540 kts | 66° |
| 2026-05-04 01:44 | 51.31701 | -48.71053 | 34983 ft | 540 kts | 66° |
| 2026-05-04 01:44 | 51.34375 | -48.59821 | 34999 ft | 539 kts | 66° |
| 2026-05-04 01:45 | 51.37020 | -48.48623 | 34988 ft | 536 kts | 66° |
| 2026-05-04 01:45 | 51.40971 | -48.31844 | 35000 ft | 536 kts | 66° |
| 2026-05-04 01:46 | 51.43589 | -48.20643 | 35006 ft | 536 kts | 66° |
| 2026-05-04 01:46 | 51.46193 | -48.09430 | 35014 ft | 535 kts | 66° |
| 2026-05-04 01:47 | 51.48771 | -47.98271 | 35020 ft | 532 kts | 66° |
| 2026-05-04 01:47 | 51.51338 | -47.87124 | 35019 ft | 532 kts | 66° |
| 2026-05-04 01:48 | 51.53888 | -47.75966 | 35025 ft | 531 kts | 66° |
| 2026-05-04 01:48 | 51.56413 | -47.64882 | 35056 ft | 531 kts | 65° |
| 2026-05-04 01:49 | 51.58937 | -47.53715 | 35038 ft | 530 kts | 65° |
| 2026-05-04 01:49 | 51.61458 | -47.42540 | 35046 ft | 530 kts | 65° |
| 2026-05-04 01:50 | 51.63967 | -47.31354 | 35043 ft | 531 kts | 65° |
| 2026-05-04 01:50 | 51.66464 | -47.20150 | 35051 ft | 531 kts | 65° |
| 2026-05-04 01:51 | 51.68945 | -47.08959 | 35066 ft | 528 kts | 66° |
| 2026-05-04 01:51 | 51.71404 | -46.97797 | 35058 ft | 528 kts | 66° |
| 2026-05-04 01:52 | 51.73855 | -46.86621 | 35073 ft | 528 kts | 66° |
| 2026-05-04 01:52 | 51.76294 | -46.75437 | 35074 ft | 528 kts | 66° |
| 2026-05-04 01:53 | 51.78718 | -46.64252 | 35093 ft | 525 kts | 66° |
| 2026-05-04 01:53 | 51.81120 | -46.53114 | 35085 ft | 524 kts | 66° |
| 2026-05-04 01:54 | 51.83107 | -46.43859 | 35098 ft | 524 kts | 66° |
| 2026-05-04 01:54 | 51.85488 | -46.32715 | 35096 ft | 524 kts | 66° |
| 2026-05-04 01:55 | 51.87860 | -46.21551 | 35137 ft | 524 kts | 66° |
| 2026-05-04 01:55 | 51.90230 | -46.10348 | 35112 ft | 526 kts | 66° |
| 2026-05-04 01:56 | 51.92591 | -45.99100 | 35111 ft | 527 kts | 67° |
| 2026-05-04 01:56 | 51.94943 | -45.87830 | 35128 ft | 527 kts | 67° |
| 2026-05-04 01:57 | 51.97285 | -45.76548 | 35125 ft | 527 kts | 67° |
| 2026-05-04 01:57 | 51.99619 | -45.65290 | 35141 ft | 524 kts | 68° |
| 2026-05-04 01:58 | 52.01915 | -45.54076 | 35142 ft | 522 kts | 68° |
| 2026-05-04 01:58 | 52.04196 | -45.42882 | 35144 ft | 521 kts | 69° |
| 2026-05-04 01:59 | 52.06466 | -45.31683 | 35149 ft | 521 kts | 69° |
| 2026-05-04 01:59 | 52.08730 | -45.20484 | 35160 ft | 519 kts | 69° |
| 2026-05-04 02:00 | 52.10968 | -45.09330 | 35169 ft | 518 kts | 69° |
| 2026-05-04 02:00 | 52.13192 | -44.98177 | 35169 ft | 517 kts | 69° |
| 2026-05-04 02:01 | 52.15408 | -44.87009 | 35171 ft | 517 kts | 69° |
| 2026-05-04 02:01 | 52.17613 | -44.75833 | 35199 ft | 518 kts | 69° |
| 2026-05-04 02:02 | 52.19806 | -44.64680 | 35182 ft | 515 kts | 70° |
| 2026-05-04 02:02 | 52.21977 | -44.53536 | 35191 ft | 515 kts | 70° |
| 2026-05-04 02:03 | 52.24139 | -44.42376 | 35190 ft | 515 kts | 70° |
| 2026-05-04 02:03 | 52.26292 | -44.31208 | 35195 ft | 515 kts | 70° |
| 2026-05-04 02:04 | 52.28436 | -44.20019 | 35197 ft | 516 kts | 70° |
| 2026-05-04 02:04 | 52.30571 | -44.08815 | 35212 ft | 516 kts | 71° |
| 2026-05-04 02:05 | 52.32694 | -43.97604 | 35209 ft | 516 kts | 71° |
| 2026-05-04 02:05 | 52.34793 | -43.86456 | 35209 ft | 516 kts | 71° |
| 2026-05-04 02:06 | 52.36897 | -43.75222 | 35236 ft | 515 kts | 71° |
| 2026-05-04 02:06 | 52.38982 | -43.64024 | 35228 ft | 513 kts | 71° |
| 2026-05-04 02:07 | 52.41050 | -43.52824 | 35229 ft | 513 kts | 71° |
| 2026-05-04 02:07 | 52.43108 | -43.41622 | 35228 ft | 513 kts | 71° |
| 2026-05-04 02:08 | 52.45177 | -43.30298 | 35436 ft | 516 kts | 72° |
| 2026-05-04 02:08 | 52.46202 | -43.24663 | 35869 ft | 513 kts | 72° |
| 2026-05-04 02:08 | 52.47218 | -43.19072 | 36325 ft | 510 kts | 72° |
| 2026-05-04 02:09 | 52.48224 | -43.13500 | 36708 ft | 508 kts | 72° |
| 2026-05-04 02:09 | 52.49211 | -43.08013 | 37002 ft | 507 kts | 72° |
| 2026-05-04 02:09 | 52.50210 | -43.02445 | 37223 ft | 508 kts | 72° |
| 2026-05-04 02:09 | 52.51208 | -42.96872 | 37241 ft | 508 kts | 72° |
| 2026-05-04 02:10 | 52.53196 | -42.85716 | 37256 ft | 508 kts | 72° |
| 2026-05-04 02:10 | 52.55173 | -42.74554 | 37276 ft | 508 kts | 72° |
| 2026-05-04 02:11 | 52.57140 | -42.63393 | 37268 ft | 507 kts | 73° |
| 2026-05-04 02:11 | 52.59091 | -42.52230 | 37272 ft | 507 kts | 73° |
| 2026-05-04 02:12 | 52.61031 | -42.41064 | 37272 ft | 507 kts | 73° |
| 2026-05-04 02:12 | 52.62962 | -42.29888 | 37280 ft | 507 kts | 73° |
| 2026-05-04 02:13 | 52.64884 | -42.18705 | 37289 ft | 506 kts | 73° |
| 2026-05-04 02:13 | 52.66786 | -42.07549 | 37289 ft | 505 kts | 73° |
| 2026-05-04 02:14 | 52.68677 | -41.96384 | 37274 ft | 505 kts | 73° |
| 2026-05-04 02:14 | 52.70561 | -41.85195 | 37292 ft | 505 kts | 73° |
| 2026-05-04 02:15 | 52.72434 | -41.74001 | 37296 ft | 506 kts | 73° |
| 2026-05-04 02:15 | 52.74296 | -41.62813 | 37303 ft | 505 kts | 74° |
| 2026-05-04 02:16 | 52.76145 | -41.51609 | 37308 ft | 505 kts | 74° |
| 2026-05-04 02:16 | 52.77970 | -41.40478 | 37307 ft | 505 kts | 74° |
| 2026-05-04 02:17 | 52.79799 | -41.29259 | 37309 ft | 505 kts | 74° |
| 2026-05-04 02:17 | 52.81618 | -41.18032 | 37319 ft | 505 kts | 75° |
| 2026-05-04 02:18 | 52.83423 | -41.06807 | 37320 ft | 504 kts | 75° |
| 2026-05-04 02:18 | 52.85217 | -40.95575 | 37322 ft | 504 kts | 75° |
| 2026-05-04 02:19 | 52.87000 | -40.84331 | 37324 ft | 504 kts | 75° |
| 2026-05-04 02:19 | 52.88775 | -40.73073 | 37316 ft | 504 kts | 75° |
| 2026-05-04 02:20 | 52.90537 | -40.61824 | 37332 ft | 504 kts | 75° |
| 2026-05-04 02:20 | 52.92288 | -40.50553 | 37332 ft | 504 kts | 75° |
| 2026-05-04 02:21 | 52.94028 | -40.39282 | 37334 ft | 504 kts | 75° |
| 2026-05-04 02:21 | 52.95758 | -40.28000 | 37340 ft | 504 kts | 76° |
| 2026-05-04 02:22 | 52.97477 | -40.16709 | 37347 ft | 504 kts | 76° |
| 2026-05-04 02:22 | 52.99201 | -40.05420 | 37345 ft | 504 kts | 74° |
| 2026-05-04 02:23 | 53.01408 | -39.94369 | 37343 ft | 504 kts | 68° |
| 2026-05-04 02:23 | 53.04084 | -39.83603 | 37350 ft | 503 kts | 66° |
| 2026-05-04 02:24 | 53.06774 | -39.72939 | 37352 ft | 503 kts | 66° |
| 2026-05-04 02:24 | 53.09470 | -39.62168 | 37355 ft | 503 kts | 67° |
| 2026-05-04 02:25 | 53.12147 | -39.51391 | 37354 ft | 503 kts | 67° |
| 2026-05-04 02:25 | 53.14812 | -39.40595 | 37357 ft | 503 kts | 67° |
| 2026-05-04 02:26 | 53.17468 | -39.29783 | 37365 ft | 503 kts | 67° |
| 2026-05-04 02:26 | 53.20115 | -39.18953 | 37365 ft | 503 kts | 67° |
| 2026-05-04 02:27 | 53.22751 | -39.08119 | 37360 ft | 503 kts | 67° |
| 2026-05-04 02:27 | 53.25372 | -38.97287 | 37366 ft | 503 kts | 68° |
| 2026-05-04 02:28 | 53.27986 | -38.86432 | 37367 ft | 503 kts | 68° |
| 2026-05-04 02:28 | 53.30588 | -38.75569 | 37368 ft | 503 kts | 68° |
| 2026-05-04 02:29 | 53.33183 | -38.64684 | 37368 ft | 503 kts | 68° |
| 2026-05-04 02:29 | 53.35768 | -38.53788 | 37370 ft | 503 kts | 68° |
| 2026-05-04 02:30 | 53.38342 | -38.42881 | 37370 ft | 503 kts | 68° |
| 2026-05-04 02:30 | 53.40909 | -38.31950 | 37376 ft | 503 kts | 68° |
| 2026-05-04 02:31 | 53.43462 | -38.21018 | 37371 ft | 503 kts | 68° |
| 2026-05-04 02:31 | 53.46011 | -38.10053 | 37374 ft | 504 kts | 68° |
| 2026-05-04 02:32 | 53.48547 | -37.99084 | 37378 ft | 504 kts | 68° |
| 2026-05-04 02:32 | 53.51076 | -37.88091 | 37381 ft | 504 kts | 68° |
| 2026-05-04 02:33 | 53.53593 | -37.77088 | 37386 ft | 504 kts | 68° |
| 2026-05-04 02:33 | 53.56104 | -37.66059 | 37385 ft | 504 kts | 68° |
| 2026-05-04 02:34 | 53.58606 | -37.55015 | 37380 ft | 504 kts | 69° |
| 2026-05-04 02:34 | 53.61097 | -37.43958 | 37380 ft | 504 kts | 69° |
| 2026-05-04 02:35 | 53.63561 | -37.32962 | 37390 ft | 504 kts | 69° |
| 2026-05-04 02:35 | 53.66031 | -37.21875 | 37384 ft | 505 kts | 69° |
| 2026-05-04 02:36 | 53.68495 | -37.10766 | 37383 ft | 505 kts | 69° |
| 2026-05-04 02:36 | 53.70948 | -36.99642 | 37386 ft | 505 kts | 69° |
| 2026-05-04 02:37 | 53.73391 | -36.88509 | 37379 ft | 504 kts | 69° |
| 2026-05-04 02:37 | 53.75820 | -36.77370 | 37391 ft | 505 kts | 69° |
| 2026-05-04 02:38 | 53.78242 | -36.66211 | 37389 ft | 505 kts | 69° |
| 2026-05-04 02:38 | 53.80654 | -36.55035 | 37393 ft | 505 kts | 69° |
| 2026-05-04 02:39 | 53.83056 | -36.43846 | 37393 ft | 505 kts | 69° |
| 2026-05-04 02:39 | 53.85447 | -36.32645 | 37395 ft | 505 kts | 69° |
| 2026-05-04 02:40 | 53.87829 | -36.21426 | 37392 ft | 505 kts | 69° |
| 2026-05-04 02:40 | 53.90200 | -36.10192 | 37391 ft | 505 kts | 70° |
| 2026-05-04 02:41 | 53.92547 | -35.99016 | 37393 ft | 505 kts | 70° |
| 2026-05-04 02:41 | 53.94898 | -35.87756 | 37406 ft | 506 kts | 70° |
| 2026-05-04 02:42 | 53.97239 | -35.76477 | 37396 ft | 506 kts | 70° |
| 2026-05-04 02:42 | 53.99571 | -35.65181 | 37396 ft | 506 kts | 70° |
| 2026-05-04 02:43 | 54.01892 | -35.53872 | 37394 ft | 506 kts | 70° |
| 2026-05-04 02:43 | 54.03829 | -35.44387 | 37393 ft | 506 kts | 70° |
| 2026-05-04 02:44 | 54.06131 | -35.33055 | 37398 ft | 506 kts | 70° |
| 2026-05-04 02:44 | 54.08408 | -35.21783 | 37392 ft | 506 kts | 70° |
| 2026-05-04 02:45 | 54.10689 | -35.10423 | 37391 ft | 506 kts | 70° |
| 2026-05-04 02:45 | 54.12961 | -34.99043 | 37389 ft | 506 kts | 70° |
| 2026-05-04 02:46 | 54.15222 | -34.87655 | 37400 ft | 506 kts | 70° |
| 2026-05-04 02:46 | 54.17473 | -34.76249 | 37389 ft | 506 kts | 71° |
| 2026-05-04 02:47 | 54.19712 | -34.64835 | 37378 ft | 506 kts | 71° |
| 2026-05-04 02:47 | 54.21940 | -34.53410 | 37391 ft | 506 kts | 71° |
| 2026-05-04 02:48 | 54.24155 | -34.41984 | 37390 ft | 506 kts | 71° |
| 2026-05-04 02:48 | 54.26360 | -34.30542 | 37390 ft | 506 kts | 71° |
| 2026-05-04 02:49 | 54.28555 | -34.19082 | 37388 ft | 506 kts | 71° |
| 2026-05-04 02:49 | 54.30738 | -34.07618 | 37391 ft | 506 kts | 71° |
| 2026-05-04 02:50 | 54.32911 | -33.96139 | 37393 ft | 506 kts | 71° |
| 2026-05-04 02:50 | 54.35071 | -33.84651 | 37396 ft | 506 kts | 71° |
| 2026-05-04 02:51 | 54.37223 | -33.73142 | 37388 ft | 506 kts | 71° |
| 2026-05-04 02:51 | 54.39363 | -33.61624 | 37388 ft | 506 kts | 71° |
| 2026-05-04 02:52 | 54.41493 | -33.50089 | 37385 ft | 506 kts | 71° |
| 2026-05-04 02:52 | 54.43611 | -33.38548 | 37383 ft | 506 kts | 72° |
| 2026-05-04 02:53 | 54.45718 | -33.26990 | 37386 ft | 506 kts | 72° |
| 2026-05-04 02:53 | 54.47813 | -33.15438 | 37388 ft | 506 kts | 72° |
| 2026-05-04 02:54 | 54.49897 | -33.03865 | 37383 ft | 506 kts | 72° |
| 2026-05-04 02:54 | 54.51970 | -32.92282 | 37380 ft | 506 kts | 72° |
| 2026-05-04 02:55 | 54.55057 | -32.74892 | 37386 ft | 505 kts | 72° |
| 2026-05-04 02:56 | 54.57099 | -32.63299 | 37383 ft | 505 kts | 72° |
| 2026-05-04 02:56 | 54.59129 | -32.51699 | 37381 ft | 505 kts | 72° |
| 2026-05-04 02:57 | 54.61148 | -32.40083 | 37385 ft | 505 kts | 72° |
| 2026-05-04 02:57 | 54.63156 | -32.28465 | 37374 ft | 504 kts | 72° |
| 2026-05-04 02:58 | 54.65146 | -32.16864 | 37374 ft | 503 kts | 72° |
| 2026-05-04 02:58 | 54.67125 | -32.05253 | 37382 ft | 503 kts | 73° |
| 2026-05-04 02:59 | 54.69093 | -31.93639 | 37382 ft | 503 kts | 73° |
| 2026-05-04 02:59 | 54.71036 | -31.82090 | 37389 ft | 503 kts | 73° |
| 2026-05-04 03:00 | 54.72980 | -31.70469 | 37380 ft | 502 kts | 73° |
| 2026-05-04 03:00 | 54.74908 | -31.58849 | 37384 ft | 502 kts | 73° |
| 2026-05-04 03:01 | 54.76826 | -31.47218 | 37386 ft | 501 kts | 73° |
| 2026-05-04 03:01 | 54.78731 | -31.35584 | 37379 ft | 501 kts | 73° |
| 2026-05-04 03:02 | 54.80626 | -31.23944 | 37384 ft | 500 kts | 74° |
| 2026-05-04 03:02 | 54.82501 | -31.12336 | 37381 ft | 499 kts | 74° |
| 2026-05-04 03:03 | 54.84364 | -31.00722 | 37376 ft | 499 kts | 74° |
| 2026-05-04 03:03 | 54.86218 | -30.89090 | 37373 ft | 499 kts | 74° |
| 2026-05-04 03:04 | 54.88059 | -30.77456 | 37380 ft | 499 kts | 74° |
| 2026-05-04 03:04 | 54.89887 | -30.65839 | 37366 ft | 497 kts | 75° |
| 2026-05-04 03:05 | 54.91697 | -30.54230 | 37363 ft | 497 kts | 75° |
| 2026-05-04 03:05 | 54.93498 | -30.42613 | 37363 ft | 497 kts | 75° |
| 2026-05-04 03:06 | 54.95287 | -30.30984 | 37363 ft | 497 kts | 75° |
| 2026-05-04 03:06 | 54.97067 | -30.19353 | 37367 ft | 495 kts | 75° |
| 2026-05-04 03:07 | 54.98825 | -30.07758 | 37365 ft | 494 kts | 75° |
| 2026-05-04 03:07 | 55.00559 | -29.96154 | 37368 ft | 494 kts | 76° |
| 2026-05-04 03:08 | 55.02227 | -29.84505 | 37359 ft | 494 kts | 76° |
| 2026-05-04 03:08 | 55.03876 | -29.72858 | 37360 ft | 494 kts | 76° |
| 2026-05-04 03:09 | 55.05518 | -29.61199 | 37362 ft | 494 kts | 76° |
| 2026-05-04 03:09 | 55.07139 | -29.49625 | 37359 ft | 494 kts | 76° |
| 2026-05-04 03:10 | 55.08761 | -29.37954 | 37354 ft | 494 kts | 76° |
| 2026-05-04 03:10 | 55.10371 | -29.26282 | 37353 ft | 494 kts | 76° |
| 2026-05-04 03:11 | 55.11971 | -29.14593 | 37353 ft | 494 kts | 76° |
| 2026-05-04 03:11 | 55.13559 | -29.02900 | 37353 ft | 494 kts | 77° |
| 2026-05-04 03:12 | 55.15135 | -28.91205 | 37346 ft | 494 kts | 77° |
| 2026-05-04 03:12 | 55.16701 | -28.79491 | 37352 ft | 494 kts | 77° |
| 2026-05-04 03:13 | 55.18256 | -28.67765 | 37354 ft | 494 kts | 77° |
| 2026-05-04 03:13 | 55.19800 | -28.56029 | 37346 ft | 494 kts | 77° |
| 2026-05-04 03:14 | 55.21333 | -28.44283 | 37354 ft | 494 kts | 77° |
| 2026-05-04 03:14 | 55.22855 | -28.32526 | 37345 ft | 494 kts | 77° |
| 2026-05-04 03:15 | 55.24356 | -28.20834 | 37338 ft | 494 kts | 77° |
| 2026-05-04 03:15 | 55.25856 | -28.09057 | 37342 ft | 494 kts | 77° |
| 2026-05-04 03:16 | 55.27342 | -27.97278 | 37340 ft | 494 kts | 77° |
| 2026-05-04 03:16 | 55.28830 | -27.85397 | 37335 ft | 494 kts | 77° |
| 2026-05-04 03:17 | 55.30285 | -27.73679 | 37334 ft | 494 kts | 77° |
| 2026-05-04 03:17 | 55.31739 | -27.61867 | 37331 ft | 494 kts | 78° |
| 2026-05-04 03:18 | 55.33180 | -27.50046 | 37327 ft | 494 kts | 77° |
| 2026-05-04 03:18 | 55.34611 | -27.38219 | 37331 ft | 494 kts | 77° |
| 2026-05-04 03:19 | 55.36031 | -27.26386 | 37328 ft | 494 kts | 78° |
| 2026-05-04 03:19 | 55.37441 | -27.14538 | 37325 ft | 495 kts | 78° |
| 2026-05-04 03:20 | 55.38838 | -27.02682 | 37320 ft | 494 kts | 78° |
| 2026-05-04 03:20 | 55.40219 | -26.90827 | 37323 ft | 494 kts | 78° |
| 2026-05-04 03:21 | 55.41594 | -26.78961 | 37321 ft | 494 kts | 78° |
| 2026-05-04 03:21 | 55.42955 | -26.67101 | 37314 ft | 494 kts | 78° |
| 2026-05-04 03:22 | 55.44306 | -26.55226 | 37313 ft | 494 kts | 78° |
| 2026-05-04 03:22 | 55.45643 | -26.43344 | 37315 ft | 494 kts | 78° |
| 2026-05-04 03:23 | 55.46970 | -26.31444 | 37309 ft | 494 kts | 78° |
| 2026-05-04 03:23 | 55.48286 | -26.19546 | 37306 ft | 494 kts | 78° |
| 2026-05-04 03:24 | 55.49590 | -26.07636 | 37309 ft | 494 kts | 78° |
| 2026-05-04 03:24 | 55.50882 | -25.95719 | 37301 ft | 494 kts | 78° |
| 2026-05-04 03:25 | 55.52162 | -25.83801 | 37303 ft | 494 kts | 78° |
| 2026-05-04 03:25 | 55.53432 | -25.71851 | 37297 ft | 494 kts | 78° |
| 2026-05-04 03:26 | 55.54691 | -25.59903 | 37294 ft | 494 kts | 78° |
| 2026-05-04 03:26 | 55.55939 | -25.47938 | 37294 ft | 494 kts | 78° |
| 2026-05-04 03:27 | 55.57174 | -25.35968 | 37295 ft | 494 kts | 79° |
| 2026-05-04 03:27 | 55.58400 | -25.23980 | 37297 ft | 494 kts | 79° |
| 2026-05-04 03:28 | 55.59612 | -25.11997 | 37278 ft | 494 kts | 79° |
| 2026-05-04 03:28 | 55.60811 | -25.00008 | 37279 ft | 494 kts | 79° |
| 2026-05-04 03:29 | 55.61999 | -24.88014 | 37280 ft | 494 kts | 79° |
| 2026-05-04 03:29 | 55.63169 | -24.76092 | 37283 ft | 494 kts | 79° |
| 2026-05-04 03:30 | 55.64335 | -24.64089 | 37278 ft | 494 kts | 80° |
| 2026-05-04 03:30 | 55.65486 | -24.52081 | 37276 ft | 494 kts | 80° |
| 2026-05-04 03:31 | 55.66442 | -24.42008 | 37269 ft | 494 kts | 80° |
| 2026-05-04 03:31 | 55.67575 | -24.29969 | 37268 ft | 494 kts | 80° |
| 2026-05-04 03:32 | 55.68696 | -24.17934 | 37270 ft | 494 kts | 80° |
| 2026-05-04 03:32 | 55.69796 | -24.05984 | 37264 ft | 494 kts | 80° |
| 2026-05-04 03:33 | 55.70890 | -23.93950 | 37251 ft | 493 kts | 81° |
| 2026-05-04 03:33 | 55.71972 | -23.81905 | 37253 ft | 493 kts | 81° |
| 2026-05-04 03:34 | 55.73042 | -23.69877 | 37250 ft | 493 kts | 81° |
| 2026-05-04 03:34 | 55.74102 | -23.57822 | 37258 ft | 493 kts | 81° |
| 2026-05-04 03:35 | 55.75150 | -23.45757 | 37247 ft | 493 kts | 81° |
| 2026-05-04 03:35 | 55.76187 | -23.33686 | 37244 ft | 493 kts | 81° |
| 2026-05-04 03:36 | 55.77212 | -23.21610 | 37253 ft | 494 kts | 81° |
| 2026-05-04 03:36 | 55.78225 | -23.09518 | 37257 ft | 494 kts | 81° |
| 2026-05-04 03:37 | 55.79227 | -22.97424 | 37243 ft | 493 kts | 81° |
| 2026-05-04 03:37 | 55.80216 | -22.85328 | 37238 ft | 493 kts | 81° |
| 2026-05-04 03:38 | 55.81193 | -22.73223 | 37244 ft | 493 kts | 82° |
| 2026-05-04 03:38 | 55.82151 | -22.61204 | 37229 ft | 493 kts | 82° |
| 2026-05-04 03:39 | 55.83103 | -22.49108 | 37240 ft | 492 kts | 82° |
| 2026-05-04 03:39 | 55.84043 | -22.37007 | 37233 ft | 492 kts | 82° |
| 2026-05-04 03:40 | 55.84972 | -22.24897 | 37238 ft | 492 kts | 82° |
| 2026-05-04 03:40 | 55.85888 | -22.12789 | 37228 ft | 493 kts | 82° |
| 2026-05-04 03:41 | 55.86792 | -22.00669 | 37221 ft | 493 kts | 82° |
| 2026-05-04 03:41 | 55.87684 | -21.88542 | 37232 ft | 493 kts | 82° |
| 2026-05-04 03:42 | 55.88564 | -21.76418 | 37224 ft | 492 kts | 82° |
| 2026-05-04 03:42 | 55.89432 | -21.64296 | 37211 ft | 493 kts | 82° |
| 2026-05-04 03:43 | 55.90289 | -21.52163 | 37224 ft | 493 kts | 82° |
| 2026-05-04 03:43 | 55.91133 | -21.40025 | 37213 ft | 493 kts | 82° |
| 2026-05-04 03:44 | 55.91964 | -21.27882 | 37216 ft | 493 kts | 82° |
| 2026-05-04 03:44 | 55.92785 | -21.15735 | 37201 ft | 493 kts | 82° |
| 2026-05-04 03:45 | 55.93594 | -21.03585 | 37208 ft | 493 kts | 83° |
| 2026-05-04 03:45 | 55.94390 | -20.91434 | 37201 ft | 493 kts | 83° |
| 2026-05-04 03:46 | 55.95175 | -20.79272 | 37204 ft | 493 kts | 83° |
| 2026-05-04 03:46 | 55.95947 | -20.67119 | 37207 ft | 492 kts | 83° |
| 2026-05-04 03:47 | 55.96705 | -20.54974 | 37188 ft | 492 kts | 83° |
| 2026-05-04 03:47 | 55.97453 | -20.42816 | 37184 ft | 492 kts | 83° |
| 2026-05-04 03:48 | 55.98189 | -20.30659 | 37180 ft | 492 kts | 83° |
| 2026-05-04 03:48 | 55.98915 | -20.18490 | 37180 ft | 492 kts | 83° |
| 2026-05-04 03:49 | 55.99625 | -20.06331 | 37171 ft | 491 kts | 84° |
| 2026-05-04 03:49 | 56.00115 | -19.94138 | 37173 ft | 491 kts | 88° |
| 2026-05-04 03:50 | 56.00350 | -19.81925 | 37179 ft | 491 kts | 88° |
| 2026-05-04 03:50 | 56.00565 | -19.69698 | 37181 ft | 491 kts | 88° |
| 2026-05-04 03:51 | 56.00773 | -19.57478 | 37173 ft | 491 kts | 88° |
| 2026-05-04 03:51 | 56.00971 | -19.45272 | 37173 ft | 491 kts | 88° |
| 2026-05-04 03:52 | 56.01157 | -19.33057 | 37167 ft | 491 kts | 88° |
| 2026-05-04 03:52 | 56.01331 | -19.20847 | 37172 ft | 491 kts | 89° |
| 2026-05-04 03:53 | 56.01493 | -19.08712 | 37162 ft | 491 kts | 89° |
| 2026-05-04 03:53 | 56.01643 | -18.96504 | 37167 ft | 491 kts | 89° |
| 2026-05-04 03:54 | 56.01782 | -18.84293 | 37161 ft | 490 kts | 89° |
| 2026-05-04 03:54 | 56.01909 | -18.72084 | 37162 ft | 490 kts | 89° |
| 2026-05-04 03:55 | 56.02024 | -18.59867 | 37160 ft | 490 kts | 89° |
| 2026-05-04 03:55 | 56.02127 | -18.47657 | 37159 ft | 490 kts | 89° |
| 2026-05-04 03:56 | 56.02214 | -18.35453 | 37157 ft | 490 kts | 89° |
| 2026-05-04 03:56 | 56.02293 | -18.23245 | 37153 ft | 490 kts | 89° |
| 2026-05-04 03:57 | 56.02359 | -18.11084 | 37150 ft | 488 kts | 89° |
| 2026-05-04 03:57 | 56.02415 | -17.98927 | 37150 ft | 488 kts | 89° |
| 2026-05-04 03:58 | 56.02473 | -17.80686 | 37149 ft | 489 kts | 89° |
| 2026-05-04 03:58 | 56.02498 | -17.68527 | 37146 ft | 488 kts | 89° |
| 2026-05-04 03:59 | 56.02511 | -17.56371 | 37145 ft | 488 kts | 89° |
| 2026-05-04 03:59 | 56.02511 | -17.44207 | 37147 ft | 488 kts | 90° |
| 2026-05-04 04:00 | 56.02499 | -17.32045 | 37150 ft | 488 kts | 90° |
| 2026-05-04 04:00 | 56.02472 | -17.19880 | 37154 ft | 488 kts | 89° |
| 2026-05-04 04:01 | 56.02438 | -17.07728 | 37149 ft | 488 kts | 90° |
| 2026-05-04 04:01 | 56.02392 | -16.95589 | 37146 ft | 488 kts | 90° |
| 2026-05-04 04:02 | 56.02333 | -16.83445 | 37145 ft | 488 kts | 90° |
| 2026-05-04 04:02 | 56.02262 | -16.71380 | 37143 ft | 488 kts | 90° |
| 2026-05-04 04:03 | 56.02176 | -16.59144 | 37148 ft | 488 kts | 90° |
| 2026-05-04 04:03 | 56.02082 | -16.47064 | 37145 ft | 489 kts | 90° |
| 2026-05-04 04:04 | 56.01974 | -16.34818 | 37137 ft | 488 kts | 90° |
| 2026-05-04 04:04 | 56.01854 | -16.22760 | 37137 ft | 488 kts | 90° |
| 2026-05-04 04:05 | 56.01725 | -16.10628 | 37135 ft | 488 kts | 90° |
| 2026-05-04 04:05 | 56.01584 | -15.98509 | 37140 ft | 487 kts | 90° |
| 2026-05-04 04:06 | 56.01430 | -15.86374 | 37135 ft | 487 kts | 90° |
| 2026-05-04 04:06 | 56.01264 | -15.74243 | 37133 ft | 487 kts | 90° |
| 2026-05-04 04:07 | 56.01086 | -15.62107 | 37134 ft | 487 kts | 90° |
| 2026-05-04 04:07 | 56.00896 | -15.49979 | 37131 ft | 488 kts | 90° |
| 2026-05-04 04:08 | 56.00694 | -15.37865 | 37132 ft | 486 kts | 90° |
| 2026-05-04 04:08 | 56.00481 | -15.25775 | 37126 ft | 486 kts | 90° |
| 2026-05-04 04:09 | 56.00257 | -15.13681 | 37128 ft | 486 kts | 90° |
| 2026-05-04 04:09 | 56.00021 | -15.01591 | 37124 ft | 486 kts | 90° |
| 2026-05-04 04:10 | 56.00011 | -14.89515 | 37125 ft | 486 kts | 88° |
| 2026-05-04 04:10 | 56.00048 | -14.77417 | 37126 ft | 486 kts | 88° |
| 2026-05-04 04:11 | 56.00074 | -14.65311 | 37118 ft | 486 kts | 88° |
| 2026-05-04 04:11 | 56.00085 | -14.53205 | 37115 ft | 486 kts | 88° |
| 2026-05-04 04:12 | 56.00083 | -14.41102 | 37113 ft | 486 kts | 88° |
| 2026-05-04 04:12 | 56.00067 | -14.29100 | 37132 ft | 484 kts | 88° |
| 2026-05-04 04:13 | 56.00041 | -14.17074 | 37116 ft | 483 kts | 88° |
| 2026-05-04 04:13 | 55.99937 | -14.05051 | 37115 ft | 484 kts | 91° |
| 2026-05-04 04:14 | 55.99212 | -13.93079 | 37118 ft | 485 kts | 98° |
| 2026-05-04 04:14 | 55.97950 | -13.81208 | 37118 ft | 486 kts | 99° |
| 2026-05-04 04:15 | 55.96643 | -13.69354 | 37132 ft | 486 kts | 99° |
| 2026-05-04 04:15 | 55.95328 | -13.57495 | 37116 ft | 487 kts | 99° |
| 2026-05-04 04:16 | 55.94005 | -13.45637 | 37115 ft | 487 kts | 99° |
| 2026-05-04 04:16 | 55.92671 | -13.33788 | 37115 ft | 487 kts | 99° |
| 2026-05-04 04:17 | 55.91326 | -13.21940 | 37116 ft | 487 kts | 99° |
| 2026-05-04 04:17 | 55.89969 | -13.10106 | 37117 ft | 487 kts | 100° |
| 2026-05-04 04:18 | 55.88601 | -12.98295 | 37118 ft | 486 kts | 99° |
| 2026-05-04 04:18 | 55.87459 | -12.88513 | 37116 ft | 484 kts | 99° |
| 2026-05-04 04:19 | 55.86082 | -12.76780 | 37114 ft | 483 kts | 99° |
| 2026-05-04 04:19 | 55.84692 | -12.65055 | 37114 ft | 483 kts | 100° |
| 2026-05-04 04:20 | 55.83292 | -12.53345 | 37114 ft | 483 kts | 100° |
| 2026-05-04 04:20 | 55.81878 | -12.41638 | 37117 ft | 483 kts | 100° |
| 2026-05-04 04:21 | 55.80456 | -12.29949 | 37118 ft | 483 kts | 100° |
| 2026-05-04 04:21 | 55.79023 | -12.18270 | 37117 ft | 483 kts | 100° |
| 2026-05-04 04:22 | 55.77578 | -12.06591 | 37116 ft | 483 kts | 100° |
| 2026-05-04 04:22 | 55.76123 | -11.94932 | 37114 ft | 483 kts | 100° |
| 2026-05-04 04:23 | 55.74666 | -11.83354 | 37115 ft | 483 kts | 100° |
| 2026-05-04 04:23 | 55.73188 | -11.71719 | 37114 ft | 481 kts | 100° |
| 2026-05-04 04:24 | 55.71707 | -11.60136 | 37114 ft | 481 kts | 100° |
| 2026-05-04 04:24 | 55.70216 | -11.48564 | 37114 ft | 480 kts | 100° |
| 2026-05-04 04:25 | 55.68713 | -11.37001 | 37114 ft | 480 kts | 101° |
| 2026-05-04 04:25 | 55.67200 | -11.25456 | 37124 ft | 480 kts | 100° |
| 2026-05-04 04:26 | 55.65671 | -11.13898 | 37117 ft | 481 kts | 100° |
| 2026-05-04 04:26 | 55.64134 | -11.02334 | 37116 ft | 482 kts | 101° |
| 2026-05-04 04:27 | 55.62585 | -10.90787 | 37110 ft | 482 kts | 101° |
| 2026-05-04 04:27 | 55.61024 | -10.79237 | 37113 ft | 482 kts | 101° |
| 2026-05-04 04:28 | 55.59452 | -10.67697 | 37116 ft | 482 kts | 101° |
| 2026-05-04 04:28 | 55.57868 | -10.56165 | 37117 ft | 482 kts | 101° |
| 2026-05-04 04:29 | 55.56273 | -10.44633 | 37113 ft | 482 kts | 101° |
| 2026-05-04 04:29 | 55.54668 | -10.33108 | 37109 ft | 482 kts | 101° |
| 2026-05-04 04:30 | 55.53051 | -10.21587 | 37111 ft | 482 kts | 101° |
| 2026-05-04 04:30 | 55.51423 | -10.10083 | 37113 ft | 483 kts | 101° |
| 2026-05-04 04:31 | 55.49636 | -9.98644 | 37114 ft | 485 kts | 105° |
| 2026-05-04 04:31 | 55.47308 | -9.87406 | 37109 ft | 486 kts | 108° |
| 2026-05-04 04:32 | 55.44936 | -9.76317 | 37103 ft | 486 kts | 108° |
| 2026-05-04 04:32 | 55.42539 | -9.65171 | 37102 ft | 486 kts | 108° |
| 2026-05-04 04:33 | 55.40132 | -9.54042 | 37098 ft | 485 kts | 108° |
| 2026-05-04 04:33 | 55.37725 | -9.42973 | 37113 ft | 483 kts | 108° |
| 2026-05-04 04:34 | 55.35313 | -9.31928 | 37096 ft | 483 kts | 108° |
| 2026-05-04 04:34 | 55.32889 | -9.20891 | 37095 ft | 483 kts | 108° |
| 2026-05-04 04:35 | 55.30455 | -9.09865 | 37096 ft | 484 kts | 108° |
| 2026-05-04 04:35 | 55.28013 | -8.98866 | 37093 ft | 484 kts | 108° |
| 2026-05-04 04:36 | 55.25558 | -8.87863 | 37097 ft | 484 kts | 108° |
| 2026-05-04 04:36 | 55.23093 | -8.76876 | 37098 ft | 484 kts | 108° |
| 2026-05-04 04:37 | 55.18142 | -8.54979 | 37100 ft | 482 kts | 108° |
| 2026-05-04 04:38 | 55.15656 | -8.44069 | 37096 ft | 482 kts | 108° |
| 2026-05-04 04:38 | 55.13162 | -8.33178 | 37086 ft | 482 kts | 109° |
| 2026-05-04 04:39 | 55.10656 | -8.22295 | 37094 ft | 482 kts | 109° |
| 2026-05-04 04:39 | 55.08159 | -8.11501 | 37091 ft | 482 kts | 109° |
| 2026-05-04 04:40 | 55.05616 | -8.00571 | 37091 ft | 482 kts | 109° |
| 2026-05-04 04:40 | 55.03083 | -7.89734 | 37087 ft | 482 kts | 109° |
| 2026-05-04 04:41 | 55.00539 | -7.78906 | 37087 ft | 481 kts | 109° |
| 2026-05-04 04:41 | 54.98017 | -7.68227 | 37095 ft | 479 kts | 109° |
| 2026-05-04 04:42 | 54.95467 | -7.57478 | 37087 ft | 480 kts | 109° |
| 2026-05-04 04:42 | 54.92905 | -7.46736 | 37084 ft | 480 kts | 109° |
| 2026-05-04 04:43 | 54.90332 | -7.36003 | 37090 ft | 480 kts | 110° |
| 2026-05-04 04:43 | 54.87749 | -7.25282 | 37082 ft | 480 kts | 110° |
| 2026-05-04 04:44 | 54.85156 | -7.14568 | 37080 ft | 481 kts | 110° |
| 2026-05-04 04:44 | 54.82554 | -7.03872 | 37098 ft | 481 kts | 110° |
| 2026-05-04 04:45 | 54.79944 | -6.93203 | 37082 ft | 480 kts | 110° |
| 2026-05-04 04:47 | 54.70751 | -6.55997 | 37071 ft | 480 kts | 110° |
| 2026-05-04 04:47 | 54.68101 | -6.45389 | 37076 ft | 480 kts | 110° |
| 2026-05-04 04:48 | 54.65441 | -6.34792 | 37072 ft | 480 kts | 110° |
| 2026-05-04 04:49 | 54.58751 | -6.08366 | 37074 ft | 480 kts | 110° |
| 2026-05-04 04:49 | 54.56056 | -5.97806 | 37046 ft | 479 kts | 110° |
| 2026-05-04 04:50 | 54.53378 | -5.87362 | 37046 ft | 479 kts | 110° |
| 2026-05-04 04:50 | 54.50671 | -5.76858 | 37043 ft | 479 kts | 110° |
| 2026-05-04 04:51 | 54.47950 | -5.66342 | 37047 ft | 479 kts | 111° |
| 2026-05-04 04:51 | 54.45225 | -5.55866 | 37052 ft | 479 kts | 111° |
| 2026-05-04 04:52 | 54.42491 | -5.45400 | 37050 ft | 479 kts | 111° |
| 2026-05-04 04:52 | 54.39748 | -5.34949 | 37060 ft | 479 kts | 111° |
| 2026-05-04 04:53 | 54.36997 | -5.24504 | 37048 ft | 479 kts | 111° |
| 2026-05-04 04:53 | 54.34237 | -5.14092 | 37046 ft | 479 kts | 111° |
| 2026-05-04 04:54 | 54.31470 | -5.03700 | 37046 ft | 479 kts | 111° |
| 2026-05-04 04:54 | 54.28694 | -4.93321 | 37044 ft | 479 kts | 112° |
| 2026-05-04 04:55 | 54.25910 | -4.82955 | 37039 ft | 479 kts | 112° |
| 2026-05-04 04:55 | 54.23118 | -4.72601 | 37044 ft | 479 kts | 112° |
| 2026-05-04 04:56 | 54.20311 | -4.62246 | 37039 ft | 480 kts | 112° |
| 2026-05-04 04:56 | 54.17495 | -4.51903 | 37038 ft | 480 kts | 112° |
| 2026-05-04 04:57 | 54.14671 | -4.41575 | 37025 ft | 479 kts | 112° |
| 2026-05-04 04:57 | 54.11841 | -4.31272 | 37020 ft | 479 kts | 112° |
| 2026-05-04 04:58 | 54.08999 | -4.20976 | 37034 ft | 479 kts | 113° |
| 2026-05-04 04:58 | 54.06171 | -4.10758 | 37029 ft | 480 kts | 113° |
| 2026-05-04 04:59 | 54.03306 | -4.00478 | 37026 ft | 480 kts | 113° |
| 2026-05-04 04:59 | 54.00436 | -3.90217 | 37029 ft | 480 kts | 113° |
| 2026-05-04 05:00 | 53.97557 | -3.79964 | 37026 ft | 480 kts | 114° |
| 2026-05-04 05:01 | 53.93222 | -3.64598 | 37024 ft | 480 kts | 114° |
| 2026-05-04 05:01 | 53.90317 | -3.54376 | 37024 ft | 480 kts | 114° |
| 2026-05-04 05:02 | 53.87680 | -3.43970 | 37013 ft | 479 kts | 109° |
| 2026-05-04 05:02 | 53.85360 | -3.33364 | 37022 ft | 479 kts | 109° |
| 2026-05-04 05:03 | 53.83036 | -3.22769 | 37021 ft | 479 kts | 109° |
| 2026-05-04 05:04 | 53.78357 | -3.01590 | 37025 ft | 481 kts | 110° |
| 2026-05-04 05:04 | 53.75996 | -2.91003 | 37020 ft | 481 kts | 110° |
| 2026-05-04 05:06 | 53.66449 | -2.48681 | 37013 ft | 485 kts | 110° |
| 2026-05-04 05:07 | 53.64021 | -2.38060 | 37006 ft | 485 kts | 111° |
| 2026-05-04 05:07 | 53.61582 | -2.27445 | 37028 ft | 485 kts | 111° |
| 2026-05-04 05:09 | 53.51309 | -1.81327 | 37022 ft | 486 kts | 107° |
| 2026-05-04 05:10 | 53.49390 | -1.70399 | 37030 ft | 487 kts | 107° |
| 2026-05-04 05:10 | 53.47460 | -1.59487 | 37029 ft | 487 kts | 107° |
| 2026-05-04 05:11 | 53.45527 | -1.48655 | 37025 ft | 487 kts | 107° |
| 2026-05-04 05:11 | 53.43564 | -1.37761 | 37015 ft | 488 kts | 107° |
| 2026-05-04 05:12 | 53.41591 | -1.26881 | 37013 ft | 487 kts | 107° |
| 2026-05-04 05:12 | 53.39614 | -1.15999 | 37017 ft | 487 kts | 107° |
| 2026-05-04 05:13 | 53.37626 | -1.05139 | 37016 ft | 487 kts | 108° |
| 2026-05-04 05:13 | 53.37529 | -1.04613 | 37014 ft | 487 kts | 108° |
| 2026-05-04 05:17 | 53.37411 | -1.03968 | 37015 ft | 487 kts | 108° |
| 2026-05-04 05:18 | 53.35414 | -0.93111 | 37005 ft | 488 kts | 108° |
| 2026-05-04 05:18 | 53.33401 | -0.82250 | 36994 ft | 488 kts | 108° |
| 2026-05-04 05:19 | 53.31378 | -0.71402 | 36995 ft | 488 kts | 108° |
| 2026-05-04 05:19 | 53.29362 | -0.60639 | 36994 ft | 488 kts | 108° |
| 2026-05-04 05:20 | 53.27320 | -0.49810 | 36992 ft | 488 kts | 108° |
| 2026-05-04 05:20 | 53.25270 | -0.38992 | 36990 ft | 488 kts | 108° |
| 2026-05-04 05:21 | 53.23210 | -0.28184 | 36991 ft | 488 kts | 109° |
| 2026-05-04 05:21 | 53.21141 | -0.17393 | 36992 ft | 487 kts | 109° |
| 2026-05-04 05:22 | 53.19060 | -0.06608 | 36990 ft | 488 kts | 109° |
| 2026-05-04 05:22 | 53.16972 | 0.04161 | 36980 ft | 488 kts | 109° |
| 2026-05-04 05:23 | 53.14868 | 0.14940 | 36988 ft | 489 kts | 109° |
| 2026-05-04 05:23 | 53.12752 | 0.25718 | 36989 ft | 489 kts | 109° |
| 2026-05-04 05:24 | 53.10629 | 0.36480 | 36993 ft | 489 kts | 109° |
| 2026-05-04 05:24 | 53.08499 | 0.47224 | 36985 ft | 489 kts | 109° |
| 2026-05-04 05:25 | 53.06358 | 0.57981 | 36985 ft | 490 kts | 110° |
| 2026-05-04 05:25 | 53.04197 | 0.68754 | 36985 ft | 491 kts | 110° |
| 2026-05-04 05:26 | 53.02028 | 0.79509 | 36983 ft | 491 kts | 110° |
| 2026-05-04 05:26 | 52.99851 | 0.90256 | 36980 ft | 490 kts | 110° |
| 2026-05-04 05:28 | 52.90485 | 1.32612 | 36976 ft | 489 kts | 112° |
| 2026-05-04 05:29 | 52.88069 | 1.43162 | 36975 ft | 489 kts | 112° |
| 2026-05-04 05:29 | 52.85646 | 1.53706 | 36963 ft | 490 kts | 113° |
| 2026-05-04 05:31 | 52.75847 | 1.95822 | 36967 ft | 490 kts | 113° |
| 2026-05-04 05:32 | 52.73376 | 2.06329 | 36963 ft | 490 kts | 114° |
| 2026-05-04 05:33 | 52.69653 | 2.22036 | 36967 ft | 490 kts | 114° |
| 2026-05-04 05:33 | 52.67158 | 2.32498 | 36968 ft | 490 kts | 114° |
| 2026-05-04 05:34 | 52.64673 | 2.42873 | 36962 ft | 490 kts | 114° |
| 2026-05-04 05:34 | 52.62163 | 2.53311 | 36953 ft | 490 kts | 114° |
| 2026-05-04 05:35 | 52.59640 | 2.63747 | 36955 ft | 490 kts | 114° |
| 2026-05-04 05:35 | 52.57107 | 2.74170 | 36957 ft | 490 kts | 114° |
| 2026-05-04 05:36 | 52.54528 | 2.84544 | 36956 ft | 489 kts | 117° |
| 2026-05-04 05:36 | 52.51623 | 2.94650 | 36955 ft | 489 kts | 118° |
| 2026-05-04 05:37 | 52.48693 | 3.04724 | 36948 ft | 489 kts | 118° |
| 2026-05-04 05:37 | 52.45746 | 3.14821 | 36954 ft | 491 kts | 119° |
| 2026-05-04 05:38 | 52.41296 | 3.29964 | 36941 ft | 491 kts | 119° |
| 2026-05-04 05:38 | 52.38319 | 3.40046 | 36944 ft | 491 kts | 119° |
| 2026-05-04 05:39 | 52.33842 | 3.55157 | 36937 ft | 492 kts | 120° |
| 2026-05-04 05:40 | 52.29329 | 3.70258 | 36945 ft | 492 kts | 120° |
| 2026-05-04 05:40 | 52.26311 | 3.80310 | 36954 ft | 492 kts | 120° |
| 2026-05-04 05:41 | 52.23285 | 3.90350 | 36953 ft | 492 kts | 120° |
| 2026-05-04 05:41 | 52.20257 | 4.00373 | 36943 ft | 492 kts | 121° |
| 2026-05-04 05:42 | 52.17218 | 4.10370 | 36956 ft | 492 kts | 121° |
| 2026-05-04 05:42 | 52.14167 | 4.20357 | 36947 ft | 492 kts | 121° |
| 2026-05-04 05:43 | 52.11108 | 4.30338 | 36946 ft | 492 kts | 121° |
| 2026-05-04 05:45 | 51.98811 | 4.70055 | 36936 ft | 491 kts | 121° |
| 2026-05-04 05:47 | 51.86417 | 5.09449 | 36948 ft | 489 kts | 122° |
| 2026-05-04 05:47 | 51.83326 | 5.19169 | 36945 ft | 489 kts | 122° |
| 2026-05-04 05:48 | 51.80207 | 5.28943 | 36948 ft | 489 kts | 122° |
| 2026-05-04 05:48 | 51.77080 | 5.38706 | 36938 ft | 489 kts | 122° |
| 2026-05-04 05:49 | 51.73925 | 5.48517 | 36953 ft | 489 kts | 122° |
| 2026-05-04 05:49 | 51.70761 | 5.58313 | 36955 ft | 489 kts | 123° |
| 2026-05-04 05:51 | 51.58092 | 5.97167 | 36962 ft | 489 kts | 123° |
| 2026-05-04 05:52 | 51.54914 | 6.06828 | 36962 ft | 488 kts | 123° |
| 2026-05-04 05:52 | 51.51725 | 6.16473 | 36961 ft | 488 kts | 122° |
| 2026-05-04 05:54 | 51.41379 | 6.56808 | 35673 ft | 481 kts | 116° |
| 2026-05-04 05:55 | 51.40143 | 6.61790 | 35247 ft | 481 kts | 116° |
| 2026-05-04 05:55 | 51.38905 | 6.66769 | 34739 ft | 481 kts | 116° |
| 2026-05-04 05:55 | 51.37663 | 6.71755 | 34168 ft | 481 kts | 116° |
| 2026-05-04 05:55 | 51.36421 | 6.76739 | 33544 ft | 481 kts | 116° |
| 2026-05-04 05:56 | 51.35177 | 6.81712 | 32916 ft | 481 kts | 116° |
| 2026-05-04 05:56 | 51.33928 | 6.86691 | 32296 ft | 481 kts | 116° |
| 2026-05-04 05:56 | 51.32677 | 6.91667 | 31666 ft | 482 kts | 116° |
| 2026-05-04 05:56 | 51.31424 | 6.96643 | 31034 ft | 482 kts | 117° |
| 2026-05-04 05:57 | 51.30592 | 6.99939 | 30624 ft | 483 kts | 116° |
| 2026-05-04 05:57 | 51.29328 | 7.04931 | 29974 ft | 485 kts | 116° |
| 2026-05-04 05:57 | 51.27944 | 7.09835 | 29192 ft | 481 kts | 125° |
| 2026-05-04 05:57 | 51.25982 | 7.14090 | 28488 ft | 471 kts | 139° |
| 2026-05-04 05:58 | 51.23525 | 7.17454 | 27813 ft | 462 kts | 151° |
| 2026-05-04 05:58 | 51.20718 | 7.19931 | 27454 ft | 460 kts | 158° |
| 2026-05-04 05:58 | 51.17855 | 7.22181 | 27036 ft | 458 kts | 159° |
| 2026-05-04 05:58 | 51.15004 | 7.24406 | 26533 ft | 455 kts | 159° |
| 2026-05-04 05:59 | 51.12177 | 7.26627 | 26052 ft | 450 kts | 158° |
| 2026-05-04 05:59 | 51.09395 | 7.28867 | 25595 ft | 446 kts | 157° |
| 2026-05-04 05:59 | 51.06657 | 7.31129 | 25158 ft | 441 kts | 157° |
| 2026-05-04 05:59 | 51.03951 | 7.33372 | 24711 ft | 437 kts | 157° |
| 2026-05-04 06:00 | 51.01252 | 7.35602 | 24067 ft | 437 kts | 157° |
| 2026-05-04 06:00 | 50.98559 | 7.37821 | 23427 ft | 437 kts | 157° |
| 2026-05-04 06:00 | 50.95862 | 7.40041 | 22722 ft | 435 kts | 157° |
| 2026-05-04 06:00 | 50.93179 | 7.42246 | 22066 ft | 433 kts | 157° |
| 2026-05-04 06:01 | 50.90510 | 7.44434 | 21437 ft | 430 kts | 157° |
| 2026-05-04 06:01 | 50.87855 | 7.46608 | 20797 ft | 428 kts | 157° |
| 2026-05-04 06:03 | 50.70093 | 7.61084 | 17693 ft | 396 kts | 157° |
| 2026-05-04 06:03 | 50.67657 | 7.63057 | 17270 ft | 392 kts | 157° |
| 2026-05-04 06:05 | 50.51141 | 7.76380 | 14355 ft | 372 kts | 156° |
| 2026-05-04 06:05 | 50.46543 | 7.80071 | 13503 ft | 369 kts | 156° |
| 2026-05-04 06:05 | 50.44303 | 7.82037 | 13071 ft | 368 kts | 152° |
| 2026-05-04 06:06 | 50.42153 | 7.84255 | 12720 ft | 376 kts | 148° |
| 2026-05-04 06:06 | 50.40043 | 7.86777 | 12711 ft | 384 kts | 145° |
| 2026-05-04 06:06 | 50.37943 | 7.89381 | 12334 ft | 384 kts | 144° |
| 2026-05-04 06:06 | 50.35863 | 7.91970 | 11915 ft | 380 kts | 144° |
| 2026-05-04 06:07 | 50.33799 | 7.94537 | 11500 ft | 377 kts | 144° |
| 2026-05-04 06:07 | 50.31755 | 7.97072 | 11082 ft | 373 kts | 144° |
| 2026-05-04 06:07 | 50.29723 | 7.99584 | 10674 ft | 370 kts | 145° |
| 2026-05-04 06:07 | 50.27748 | 8.02102 | 10339 ft | 364 kts | 142° |
| 2026-05-04 06:08 | 50.25966 | 8.04802 | 10055 ft | 358 kts | 136° |
| 2026-05-04 06:08 | 50.24381 | 8.07717 | 9975 ft | 344 kts | 131° |
| 2026-05-04 06:08 | 50.22944 | 8.10623 | 9975 ft | 328 kts | 131° |
| 2026-05-04 06:08 | 50.21590 | 8.13390 | 9976 ft | 312 kts | 131° |
| 2026-05-04 06:09 | 50.20303 | 8.16019 | 9972 ft | 298 kts | 131° |
| 2026-05-04 06:09 | 50.19039 | 8.18585 | 9990 ft | 297 kts | 131° |
| 2026-05-04 06:11 | 50.10665 | 8.36972 | 9984 ft | 304 kts | 105° |
| 2026-05-04 06:11 | 50.10498 | 8.40272 | 9987 ft | 308 kts | 86° |
| 2026-05-04 06:13 | 50.15561 | 8.62216 | 7333 ft | 301 kts | 70° |
| 2026-05-04 06:14 | 50.19821 | 8.80327 | 5070 ft | 291 kts | 77° |
| 2026-05-04 06:14 | 50.19756 | 8.83367 | 4942 ft | 277 kts | 114° |
| 2026-05-04 06:15 | 50.18677 | 8.85773 | 4989 ft | 271 kts | 142° |
| 2026-05-04 06:15 | 50.17059 | 8.87184 | 4996 ft | 266 kts | 167° |
| 2026-05-04 06:15 | 50.15286 | 8.87441 | 4989 ft | 248 kts | 190° |
| 2026-05-04 06:15 | 50.13693 | 8.86829 | 4980 ft | 231 kts | 207° |
| 2026-05-04 06:16 | 50.12473 | 8.85364 | 4915 ft | 216 kts | 232° |
| 2026-05-04 06:16 | 50.11692 | 8.83381 | 4644 ft | 214 kts | 245° |
| 2026-05-04 06:16 | 50.11161 | 8.81175 | 4337 ft | 214 kts | 251° |
| 2026-05-04 06:16 | 50.10698 | 8.78970 | 4024 ft | 213 kts | 251° |
| 2026-05-04 06:17 | 50.10221 | 8.76817 | 3777 ft | 211 kts | 249° |
| 2026-05-04 06:17 | 50.09722 | 8.74695 | 3501 ft | 205 kts | 249° |
| 2026-05-04 06:17 | 50.09226 | 8.72647 | 3174 ft | 199 kts | 248° |
| 2026-05-04 06:17 | 50.08742 | 8.70663 | 2869 ft | 192 kts | 248° |
| 2026-05-04 06:18 | 50.08279 | 8.68760 | 2534 ft | 183 kts | 248° |
| 2026-05-04 06:18 | 50.07844 | 8.66966 | 2252 ft | 171 kts | 248° |
| 2026-05-04 06:18 | 50.07434 | 8.65284 | 1980 ft | 161 kts | 248° |
| 2026-05-04 06:20 | 50.04773 | 8.54164 | 519 ft | 157 kts | 249° |
| 2026-05-04 06:20 | 50.04391 | 8.52569 | 359 ft | 150 kts | 249° |
| 2026-05-04 06:21 | 50.03810 | 8.50349 | 326 ft | 28 kts | 225° |
| 2026-05-04 06:21 | 50.03684 | 8.50194 | 325 ft | 14 kts | 193° |
| 2026-05-04 06:22 | 50.03630 | 8.50238 | 331 ft | 9 kts | 108° |
| 2026-05-04 06:22 | 50.03643 | 8.50346 | 331 ft | 12 kts | 72° |
| 2026-05-04 06:25 | 50.04418 | 8.53848 | 384 ft | 18 kts | 84° |
| 2026-05-04 06:25 | 50.04431 | 8.54055 | 384 ft | 20 kts | 84° |
| 2026-05-04 06:26 | 50.04446 | 8.54276 | 383 ft | 21 kts | 84° |
| 2026-05-04 06:26 | 50.04445 | 8.54522 | 378 ft | 25 kts | 105° |
| 2026-05-04 06:26 | 50.04338 | 8.54747 | 370 ft | 28 kts | 146° |
| 2026-05-04 06:26 | 50.04170 | 8.54853 | 366 ft | 22 kts | 160° |
| 2026-05-04 06:27 | 50.04076 | 8.55259 | 366 ft | 15 kts | 69° |
| 2026-05-04 06:28 | 50.04119 | 8.55436 | 364 ft | 19 kts | 69° |
| 2026-05-04 06:28 | 50.04169 | 8.55642 | 367 ft | 22 kts | 69° |
| 2026-05-04 06:28 | 50.04224 | 8.55872 | 368 ft | 18 kts | 69° |
| 2026-05-04 06:28 | 50.04233 | 8.55910 | 364 ft | 0 kts | 69° |
| 2026-05-04 06:29 | 50.04233 | 8.55911 | 364 ft | 0 kts | 69° |
| 2026-05-04 06:30 | 50.04257 | 8.55954 | 366 ft | 8 kts | 21° |
| 2026-05-04 06:30 | 50.04317 | 8.55942 | 367 ft | 10 kts | 343° |
| 2026-05-04 06:30 | 50.04386 | 8.55912 | 368 ft | 11 kts | 354° |
| 2026-05-04 06:30 | 50.04515 | 8.55952 | 369 ft | 19 kts | 22° |
| 2026-05-04 06:31 | 50.04592 | 8.56121 | 368 ft | 21 kts | 69° |
| 2026-05-04 06:31 | 50.04641 | 8.56327 | 365 ft | 13 kts | 69° |